Terminal Aerodrome Forecast
Issued by NWS Norman, OK

Home | Current Version | Previous Version | Text Only | Print | Product List | Glossary On
Versions: 1 2 3 4 5 6 7 8 9 10 11 12
000
FTUS44 KOUN 191120
TAFOKC
TAF
KOKC 191120Z 1912/2012 15008KT P6SM BKN250
     FM191500 17013G21KT P6SM FEW050 BKN200
     FM200300 15009KT P6SM OVC250=

USA.gov is the U.S. government's official web portal to all federal, state and local government web resources and services.